sensor_id;sensor_type;location;lat;lon;timestamp;pressure;altitude;pressure_sealevel;temperature;humidity
79331;BME280;68797;49.782;19.054;2024-02-26T00:01:44;96096.63;;;4.38;97.73
79331;BME280;68797;49.782;19.054;2024-02-26T00:04:16;96102.59;;;4.45;97.42
79331;BME280;68797;49.782;19.054;2024-02-26T00:07:11;96103.34;;;4.50;96.99
79331;BME280;68797;49.782;19.054;2024-02-26T00:09:48;96108.44;;;4.56;96.56
79331;BME280;68797;49.782;19.054;2024-02-26T00:12:41;96109.50;;;4.49;97.14
79331;BME280;68797;49.782;19.054;2024-02-26T00:15:21;96099.88;;;4.16;98.24
79331;BME280;68797;49.782;19.054;2024-02-26T00:17:58;96086.28;;;4.34;97.78
79331;BME280;68797;49.782;19.054;2024-02-26T00:20:29;96104.31;;;4.46;96.95
79331;BME280;68797;49.782;19.054;2024-02-26T00:23:05;96106.28;;;4.38;97.22
79331;BME280;68797;49.782;19.054;2024-02-26T00:25:42;96100.25;;;4.34;97.58
79331;BME280;68797;49.782;19.054;2024-02-26T00:28:23;96087.31;;;4.27;97.53
79331;BME280;68797;49.782;19.054;2024-02-26T00:31:13;96080.16;;;4.32;97.14
79331;BME280;68797;49.782;19.054;2024-02-26T00:33:51;96101.66;;;4.48;96.52
79331;BME280;68797;49.782;19.054;2024-02-26T00:36:37;96088.63;;;4.43;96.91
79331;BME280;68797;49.782;19.054;2024-02-26T00:39:22;96100.25;;;4.34;97.59
79331;BME280;68797;49.782;19.054;2024-02-26T00:41:52;96094.38;;;4.25;97.79
79331;BME280;68797;49.782;19.054;2024-02-26T00:44:27;96097.59;;;4.36;97.46
79331;BME280;68797;49.782;19.054;2024-02-26T00:46:58;96089.03;;;4.28;97.30
79331;BME280;68797;49.782;19.054;2024-02-26T00:49:41;96094.38;;;4.25;97.80
79331;BME280;68797;49.782;19.054;2024-02-26T00:52:16;96087.91;;;4.38;97.39
79331;BME280;68797;49.782;19.054;2024-02-26T00:54:52;96089.19;;;4.23;97.95
79331;BME280;68797;49.782;19.054;2024-02-26T00:57:29;96081.03;;;4.34;97.23
79331;BME280;68797;49.782;19.054;2024-02-26T01:00:07;96082.50;;;4.44;96.52
79331;BME280;68797;49.782;19.054;2024-02-26T01:02:41;96078.03;;;4.48;96.82
79331;BME280;68797;49.782;19.054;2024-02-26T01:05:12;96066.16;;;4.33;96.77
79331;BME280;68797;49.782;19.054;2024-02-26T01:07:42;96077.53;;;4.33;96.88
79331;BME280;68797;49.782;19.054;2024-02-26T01:10:19;96092.72;;;4.53;96.38
79331;BME280;68797;49.782;19.054;2024-02-26T01:12:52;96073.88;;;4.39;96.47
79331;BME280;68797;49.782;19.054;2024-02-26T01:15:24;96086.03;;;4.42;96.83
79331;BME280;68797;49.782;19.054;2024-02-26T01:17:59;96071.84;;;4.16;97.03
79331;BME280;68797;49.782;19.054;2024-02-26T01:20:42;96075.41;;;4.14;97.37
79331;BME280;68797;49.782;19.054;2024-02-26T01:23:16;96073.47;;;4.22;97.23
79331;BME280;68797;49.782;19.054;2024-02-26T01:25:57;96084.97;;;4.16;97.46
79331;BME280;68797;49.782;19.054;2024-02-26T01:28:40;96091.59;;;4.31;96.95
79331;BME280;68797;49.782;19.054;2024-02-26T01:31:23;96089.03;;;4.28;96.49
79331;BME280;68797;49.782;19.054;2024-02-26T01:33:53;96090.69;;;4.32;96.34
79331;BME280;68797;49.782;19.054;2024-02-26T01:36:27;96098.69;;;4.27;96.42
79331;BME280;68797;49.782;19.054;2024-02-26T01:39:21;96081.13;;;4.29;96.08
79331;BME280;68797;49.782;19.054;2024-02-26T01:41:56;96082.03;;;4.28;96.27
79331;BME280;68797;49.782;19.054;2024-02-26T01:44:37;96087.94;;;4.36;95.67
79331;BME280;68797;49.782;19.054;2024-02-26T01:47:16;96067.94;;;4.31;95.28
79331;BME280;68797;49.782;19.054;2024-02-26T01:49:57;96069.38;;;4.43;95.27
79331;BME280;68797;49.782;19.054;2024-02-26T01:52:33;96077.22;;;4.46;95.08
79331;BME280;68797;49.782;19.054;2024-02-26T01:55:07;96074.78;;;4.38;95.15
79331;BME280;68797;49.782;19.054;2024-02-26T01:57:40;96077.59;;;4.30;95.23
79331;BME280;68797;49.782;19.054;2024-02-26T02:00:21;96075.59;;;4.40;94.81
79331;BME280;68797;49.782;19.054;2024-02-26T02:02:57;96092.09;;;4.45;94.40
79331;BME280;68797;49.782;19.054;2024-02-26T02:05:30;96073.38;;;4.25;95.02
79331;BME280;68797;49.782;19.054;2024-02-26T02:08:13;96085.41;;;4.33;94.75
79331;BME280;68797;49.782;19.054;2024-02-26T02:10:45;96079.97;;;4.40;94.54
79331;BME280;68797;49.782;19.054;2024-02-26T02:13:26;96076.00;;;4.25;94.59
79331;BME280;68797;49.782;19.054;2024-02-26T02:16:04;96069.75;;;4.29;94.44
79331;BME280;68797;49.782;19.054;2024-02-26T02:18:43;96075.06;;;4.27;93.44
79331;BME280;68797;49.782;19.054;2024-02-26T02:21:15;96068.69;;;4.03;93.61
79331;BME280;68797;49.782;19.054;2024-02-26T02:23:52;96075.25;;;3.86;95.46
79331;BME280;68797;49.782;19.054;2024-02-26T02:26:27;96058.94;;;3.73;96.76
79331;BME280;68797;49.782;19.054;2024-02-26T02:29:11;96063.78;;;3.90;96.70
79331;BME280;68797;49.782;19.054;2024-02-26T02:31:44;96073.16;;;4.00;96.12
79331;BME280;68797;49.782;19.054;2024-02-26T02:34:25;96061.22;;;3.87;96.52
79331;BME280;68797;49.782;19.054;2024-02-26T02:37:27;96079.66;;;3.84;96.61
79331;BME280;68797;49.782;19.054;2024-02-26T02:41:00;96061.69;;;3.68;97.43
79331;BME280;68797;49.782;19.054;2024-02-26T02:43:31;96063.25;;;3.77;96.23
79331;BME280;68797;49.782;19.054;2024-02-26T02:46:16;96051.19;;;3.68;96.92
79331;BME280;68797;49.782;19.054;2024-02-26T02:48:54;96051.84;;;3.76;96.02
79331;BME280;68797;49.782;19.054;2024-02-26T02:51:25;96057.03;;;3.79;96.61
79331;BME280;68797;49.782;19.054;2024-02-26T02:54:01;96052.69;;;3.78;97.04
79331;BME280;68797;49.782;19.054;2024-02-26T02:57:00;96059.41;;;3.90;96.63
79331;BME280;68797;49.782;19.054;2024-02-26T02:59:37;96054.88;;;3.95;96.57
79331;BME280;68797;49.782;19.054;2024-02-26T03:02:09;96028.16;;;3.81;97.11
79331;BME280;68797;49.782;19.054;2024-02-26T03:04:43;96058.41;;;3.94;96.57
79331;BME280;68797;49.782;19.054;2024-02-26T03:07:17;96038.00;;;3.71;97.09
79331;BME280;68797;49.782;19.054;2024-02-26T03:09:53;96049.22;;;3.76;97.43
79331;BME280;68797;49.782;19.054;2024-02-26T03:12:38;96042.47;;;3.68;97.49
79331;BME280;68797;49.782;19.054;2024-02-26T03:15:20;96043.16;;;3.74;96.68
79331;BME280;68797;49.782;19.054;2024-02-26T03:17:57;96041.75;;;3.61;97.81
79331;BME280;68797;49.782;19.054;2024-02-26T03:20:39;96046.00;;;3.67;97.49
79331;BME280;68797;49.782;19.054;2024-02-26T03:23:10;96033.97;;;3.58;98.19
79331;BME280;68797;49.782;19.054;2024-02-26T03:25:47;96023.78;;;3.46;99.08
79331;BME280;68797;49.782;19.054;2024-02-26T03:28:22;96033.19;;;3.53;98.13
79331;BME280;68797;49.782;19.054;2024-02-26T03:31:01;96013.13;;;3.52;98.66
79331;BME280;68797;49.782;19.054;2024-02-26T03:33:36;96015.69;;;3.55;98.29
79331;BME280;68797;49.782;19.054;2024-02-26T03:36:18;96009.91;;;3.41;98.78
79331;BME280;68797;49.782;19.054;2024-02-26T03:38:51;96023.50;;;3.57;99.38
79331;BME280;68797;49.782;19.054;2024-02-26T03:41:30;96021.97;;;3.48;98.82
79331;BME280;68797;49.782;19.054;2024-02-26T03:44:05;96029.63;;;3.57;99.15
79331;BME280;68797;49.782;19.054;2024-02-26T03:46:53;96011.06;;;3.65;98.66
79331;BME280;68797;49.782;19.054;2024-02-26T03:49:24;96014.53;;;3.67;98.44
79331;BME280;68797;49.782;19.054;2024-02-26T03:52:15;96000.81;;;3.54;98.46
79331;BME280;68797;49.782;19.054;2024-02-26T03:54:55;96003.09;;;3.69;98.12
79331;BME280;68797;49.782;19.054;2024-02-26T03:57:46;96016.97;;;3.73;98.20
79331;BME280;68797;49.782;19.054;2024-02-26T04:00:24;95998.63;;;3.73;97.81
79331;BME280;68797;49.782;19.054;2024-02-26T04:02:59;96001.31;;;3.70;98.23
79331;BME280;68797;49.782;19.054;2024-02-26T04:05:35;96007.75;;;3.92;97.92
79331;BME280;68797;49.782;19.054;2024-02-26T04:08:12;95988.78;;;3.81;98.08
79331;BME280;68797;49.782;19.054;2024-02-26T04:10:52;95984.22;;;3.88;96.91
79331;BME280;68797;49.782;19.054;2024-02-26T04:13:25;95992.09;;;3.89;97.50
79331;BME280;68797;49.782;19.054;2024-02-26T04:16:08;95993.72;;;3.93;96.93
79331;BME280;68797;49.782;19.054;2024-02-26T04:18:49;95986.00;;;3.87;96.87
79331;BME280;68797;49.782;19.054;2024-02-26T04:21:31;95982.31;;;3.94;97.13
79331;BME280;68797;49.782;19.054;2024-02-26T04:24:03;95967.03;;;3.77;97.00
79331;BME280;68797;49.782;19.054;2024-02-26T04:26:46;95971.44;;;3.75;97.67
79331;BME280;68797;49.782;19.054;2024-02-26T04:29:19;95961.03;;;3.72;97.08
79331;BME280;68797;49.782;19.054;2024-02-26T04:31:57;95967.13;;;3.73;97.35
79331;BME280;68797;49.782;19.054;2024-02-26T04:34:40;95967.72;;;3.84;97.43
79331;BME280;68797;49.782;19.054;2024-02-26T04:37:39;95965.00;;;3.87;97.81
79331;BME280;68797;49.782;19.054;2024-02-26T04:40:10;95952.31;;;3.72;98.28
79331;BME280;68797;49.782;19.054;2024-02-26T04:42:49;95951.88;;;3.87;97.77
79331;BME280;68797;49.782;19.054;2024-02-26T04:45:43;95961.31;;;3.94;97.57
79331;BME280;68797;49.782;19.054;2024-02-26T04:48:19;95946.00;;;3.79;98.13
79331;BME280;68797;49.782;19.054;2024-02-26T04:50:49;95947.59;;;3.85;98.27
79331;BME280;68797;49.782;19.054;2024-02-26T04:53:22;95953.88;;;3.79;98.25
79331;BME280;68797;49.782;19.054;2024-02-26T04:55:58;95952.88;;;3.83;98.10
79331;BME280;68797;49.782;19.054;2024-02-26T04:58:35;95960.47;;;3.94;98.44
79331;BME280;68797;49.782;19.054;2024-02-26T05:01:11;95958.75;;;3.93;97.46
79331;BME280;68797;49.782;19.054;2024-02-26T05:03:55;95952.84;;;3.85;97.83
79331;BME280;68797;49.782;19.054;2024-02-26T05:06:28;95948.97;;;3.99;97.52
79331;BME280;68797;49.782;19.054;2024-02-26T05:09:23;95960.16;;;4.04;97.63
79331;BME280;68797;49.782;19.054;2024-02-26T05:11:58;95953.97;;;4.07;97.66
79331;BME280;68797;49.782;19.054;2024-02-26T05:14:31;95948.69;;;4.08;98.18
79331;BME280;68797;49.782;19.054;2024-02-26T05:17:08;95948.63;;;4.10;97.48
79331;BME280;68797;49.782;19.054;2024-02-26T05:19:40;95946.72;;;4.17;96.65
79331;BME280;68797;49.782;19.054;2024-02-26T05:22:18;95943.38;;;4.12;96.64
79331;BME280;68797;49.782;19.054;2024-02-26T05:25:04;95960.84;;;4.13;97.22
79331;BME280;68797;49.782;19.054;2024-02-26T05:27:45;95960.53;;;4.23;96.64
79331;BME280;68797;49.782;19.054;2024-02-26T05:35:00;95961.81;;;4.40;96.28
79331;BME280;68797;49.782;19.054;2024-02-26T05:37:50;95967.81;;;4.45;96.22
79331;BME280;68797;49.782;19.054;2024-02-26T05:40:25;95963.41;;;4.45;96.13
79331;BME280;68797;49.782;19.054;2024-02-26T05:42:56;95971.00;;;4.54;95.76
79331;BME280;68797;49.782;19.054;2024-02-26T05:45:44;95973.16;;;4.71;95.66
79331;BME280;68797;49.782;19.054;2024-02-26T05:48:14;95974.56;;;4.83;95.33
79331;BME280;68797;49.782;19.054;2024-02-26T05:50:58;95960.81;;;4.73;95.21
79331;BME280;68797;49.782;19.054;2024-02-26T05:53:55;95968.59;;;4.78;95.08
79331;BME280;68797;49.782;19.054;2024-02-26T05:56:41;95970.97;;;4.85;95.44
79331;BME280;68797;49.782;19.054;2024-02-26T05:59:14;95947.09;;;4.93;94.26
79331;BME280;68797;49.782;19.054;2024-02-26T06:02:01;95967.72;;;5.05;94.27
79331;BME280;68797;49.782;19.054;2024-02-26T06:04:39;95944.81;;;5.09;94.13
79331;BME280;68797;49.782;19.054;2024-02-26T06:07:27;95942.94;;;5.14;94.59
79331;BME280;68797;49.782;19.054;2024-02-26T06:10:07;95958.19;;;5.29;93.62
79331;BME280;68797;49.782;19.054;2024-02-26T06:12:36;95964.25;;;5.31;94.70
79331;BME280;68797;49.782;19.054;2024-02-26T06:15:08;95961.75;;;5.28;94.51
79331;BME280;68797;49.782;19.054;2024-02-26T06:17:47;95974.31;;;5.46;93.43
79331;BME280;68797;49.782;19.054;2024-02-26T06:20:26;95982.81;;;5.54;93.77
79331;BME280;68797;49.782;19.054;2024-02-26T06:23:01;95980.94;;;5.58;93.33
79331;BME280;68797;49.782;19.054;2024-02-26T06:25:38;95989.34;;;5.69;93.23
79331;BME280;68797;49.782;19.054;2024-02-26T06:28:09;95980.34;;;5.76;92.85
79331;BME280;68797;49.782;19.054;2024-02-26T06:30:49;95998.59;;;5.81;93.16
79331;BME280;68797;49.782;19.054;2024-02-26T06:33:23;95987.34;;;5.76;93.39
79331;BME280;68797;49.782;19.054;2024-02-26T06:36:06;95983.66;;;5.81;93.37
79331;BME280;68797;49.782;19.054;2024-02-26T06:38:42;96001.75;;;5.92;92.76
79331;BME280;68797;49.782;19.054;2024-02-26T06:41:22;95996.28;;;5.98;92.63
79331;BME280;68797;49.782;19.054;2024-02-26T06:44:08;95998.22;;;6.18;92.75
79331;BME280;68797;49.782;19.054;2024-02-26T06:46:52;96002.06;;;6.34;91.57
79331;BME280;68797;49.782;19.054;2024-02-26T06:49:31;95994.72;;;6.43;90.73
79331;BME280;68797;49.782;19.054;2024-02-26T06:52:06;95992.06;;;6.44;90.95
79331;BME280;68797;49.782;19.054;2024-02-26T06:54:51;96007.47;;;6.55;89.22
79331;BME280;68797;49.782;19.054;2024-02-26T06:57:35;95991.22;;;6.42;90.47
79331;BME280;68797;49.782;19.054;2024-02-26T07:00:08;95979.09;;;6.38;90.55
79331;BME280;68797;49.782;19.054;2024-02-26T07:02:47;95981.84;;;6.35;90.17
79331;BME280;68797;49.782;19.054;2024-02-26T07:05:36;95995.91;;;6.59;89.50
79331;BME280;68797;49.782;19.054;2024-02-26T07:08:26;95993.53;;;6.51;90.49
79331;BME280;68797;49.782;19.054;2024-02-26T07:11:07;95997.56;;;6.61;90.45
79331;BME280;68797;49.782;19.054;2024-02-26T07:13:43;95984.22;;;6.66;90.18
79331;BME280;68797;49.782;19.054;2024-02-26T07:16:16;96003.63;;;6.87;89.61
79331;BME280;68797;49.782;19.054;2024-02-26T07:18:49;96009.94;;;7.06;88.82
79331;BME280;68797;49.782;19.054;2024-02-26T07:21:32;96007.22;;;7.08;89.26
79331;BME280;68797;49.782;19.054;2024-02-26T07:24:27;96012.84;;;7.22;89.14
79331;BME280;68797;49.782;19.054;2024-02-26T07:27:06;96020.66;;;7.25;89.08
79331;BME280;68797;49.782;19.054;2024-02-26T07:29:36;96023.84;;;7.33;89.18
79331;BME280;68797;49.782;19.054;2024-02-26T07:35:54;96018.81;;;7.49;88.44
79331;BME280;68797;49.782;19.054;2024-02-26T07:38:26;96024.41;;;7.63;88.37
79331;BME280;68797;49.782;19.054;2024-02-26T07:41:06;96021.66;;;7.66;87.83
79331;BME280;68797;49.782;19.054;2024-02-26T07:43:39;96015.25;;;7.72;86.43
79331;BME280;68797;49.782;19.054;2024-02-26T07:46:52;96002.97;;;7.71;88.00
79331;BME280;68797;49.782;19.054;2024-02-26T07:49:27;96004.03;;;7.67;88.11
79331;BME280;68797;49.782;19.054;2024-02-26T07:52:05;96001.06;;;7.74;89.29
79331;BME280;68797;49.782;19.054;2024-02-26T07:55:04;96009.38;;;7.87;86.44
79331;BME280;68797;49.782;19.054;2024-02-26T07:57:44;96009.16;;;7.92;86.17
79331;BME280;68797;49.782;19.054;2024-02-26T08:00:18;96002.44;;;8.05;86.65
79331;BME280;68797;49.782;19.054;2024-02-26T08:02:52;96010.22;;;8.08;86.84
79331;BME280;68797;49.782;19.054;2024-02-26T08:05:32;96005.56;;;8.14;87.04
79331;BME280;68797;49.782;19.054;2024-02-26T08:08:00;96005.34;;;8.19;86.57
79331;BME280;68797;49.782;19.054;2024-02-26T08:10:34;96009.78;;;8.19;86.46
79331;BME280;68797;49.782;19.054;2024-02-26T08:13:11;96007.06;;;8.20;86.72
79331;BME280;68797;49.782;19.054;2024-02-26T08:15:50;96017.75;;;8.39;85.06
79331;BME280;68797;49.782;19.054;2024-02-26T08:18:21;96021.63;;;8.51;84.86
79331;BME280;68797;49.782;19.054;2024-02-26T08:20:58;96006.53;;;8.54;84.45
79331;BME280;68797;49.782;19.054;2024-02-26T08:23:54;96024.59;;;8.63;83.60
79331;BME280;68797;49.782;19.054;2024-02-26T08:26:34;96008.69;;;8.65;83.36
79331;BME280;68797;49.782;19.054;2024-02-26T08:29:11;96022.41;;;8.73;85.18
79331;BME280;68797;49.782;19.054;2024-02-26T08:31:43;96031.34;;;9.28;82.94
79331;BME280;68797;49.782;19.054;2024-02-26T08:34:15;96029.03;;;9.58;81.37
79331;BME280;68797;49.782;19.054;2024-02-26T08:36:51;96024.94;;;10.06;82.50
79331;BME280;68797;49.782;19.054;2024-02-26T08:39:44;96025.63;;;10.46;80.51
79331;BME280;68797;49.782;19.054;2024-02-26T08:42:18;96015.44;;;10.71;80.62
79331;BME280;68797;49.782;19.054;2024-02-26T08:44:57;96015.22;;;10.76;78.06
79331;BME280;68797;49.782;19.054;2024-02-26T08:47:36;96013.34;;;10.61;78.80
79331;BME280;68797;49.782;19.054;2024-02-26T08:50:10;96011.34;;;10.48;78.42
79331;BME280;68797;49.782;19.054;2024-02-26T08:52:51;96014.47;;;10.57;78.38
79331;BME280;68797;49.782;19.054;2024-02-26T08:55:33;96018.91;;;10.39;79.37
79331;BME280;68797;49.782;19.054;2024-02-26T08:58:23;96016.03;;;10.26;83.13
79331;BME280;68797;49.782;19.054;2024-02-26T09:01:03;96009.69;;;10.29;81.00
79331;BME280;68797;49.782;19.054;2024-02-26T09:03:39;96010.72;;;10.26;82.14
79331;BME280;68797;49.782;19.054;2024-02-26T09:06:10;96018.91;;;10.22;80.12
79331;BME280;68797;49.782;19.054;2024-02-26T09:08:50;96023.88;;;10.10;80.74
79331;BME280;68797;49.782;19.054;2024-02-26T09:11:20;96023.38;;;10.19;82.25
79331;BME280;68797;49.782;19.054;2024-02-26T09:13:51;96016.88;;;10.27;82.06
79331;BME280;68797;49.782;19.054;2024-02-26T09:16:29;96016.66;;;10.31;81.65
79331;BME280;68797;49.782;19.054;2024-02-26T09:19:05;96010.09;;;10.38;82.85
79331;BME280;68797;49.782;19.054;2024-02-26T09:21:43;96018.78;;;10.42;83.11
79331;BME280;68797;49.782;19.054;2024-02-26T09:24:19;96010.09;;;10.38;83.63
79331;BME280;68797;49.782;19.054;2024-02-26T09:26:55;96019.13;;;10.52;81.59
79331;BME280;68797;49.782;19.054;2024-02-26T09:29:24;96011.56;;;10.61;82.46
79331;BME280;68797;49.782;19.054;2024-02-26T09:32:12;96007.03;;;10.63;82.71
79331;BME280;68797;49.782;19.054;2024-02-26T09:34:45;96018.09;;;10.71;81.75
79331;BME280;68797;49.782;19.054;2024-02-26T09:37:18;96013.00;;;10.84;81.24
79331;BME280;68797;49.782;19.054;2024-02-26T09:39:49;96006.75;;;10.85;81.49
79331;BME280;68797;49.782;19.054;2024-02-26T09:42:32;96003.78;;;10.91;81.05
79331;BME280;68797;49.782;19.054;2024-02-26T09:45:11;96005.56;;;11.24;81.71
79331;BME280;68797;49.782;19.054;2024-02-26T09:47:45;96000.56;;;11.18;80.12
79331;BME280;68797;49.782;19.054;2024-02-26T09:50:22;96005.06;;;11.33;80.92
79331;BME280;68797;49.782;19.054;2024-02-26T09:52:55;96016.63;;;11.48;79.26
79331;BME280;68797;49.782;19.054;2024-02-26T09:55:40;96004.66;;;11.56;77.57
79331;BME280;68797;49.782;19.054;2024-02-26T09:58:21;96005.81;;;11.51;77.89
79331;BME280;68797;49.782;19.054;2024-02-26T10:00:57;96008.16;;;11.57;77.70
79331;BME280;68797;49.782;19.054;2024-02-26T10:04:10;96009.78;;;11.91;80.06
79331;BME280;68797;49.782;19.054;2024-02-26T10:06:49;95994.00;;;12.04;78.74
79331;BME280;68797;49.782;19.054;2024-02-26T10:09:32;95984.81;;;12.09;75.89
79331;BME280;68797;49.782;19.054;2024-02-26T10:12:07;95993.22;;;12.02;77.23
79331;BME280;68797;49.782;19.054;2024-02-26T10:14:39;95998.78;;;12.13;77.63
79331;BME280;68797;49.782;19.054;2024-02-26T10:17:12;95999.75;;;11.96;78.01
79331;BME280;68797;49.782;19.054;2024-02-26T10:19:51;95983.84;;;11.80;77.99
79331;BME280;68797;49.782;19.054;2024-02-26T10:22:27;96004.66;;;11.88;78.82
79331;BME280;68797;49.782;19.054;2024-02-26T10:25:04;95998.22;;;11.92;78.79
79331;BME280;68797;49.782;19.054;2024-02-26T10:27:45;96001.72;;;11.92;79.26
79331;BME280;68797;49.782;19.054;2024-02-26T10:30:25;95984.84;;;11.78;80.89
79331;BME280;68797;49.782;19.054;2024-02-26T10:33:04;95989.91;;;11.82;79.52
79331;BME280;68797;49.782;19.054;2024-02-26T10:36:00;95997.19;;;11.95;78.84
79331;BME280;68797;49.782;19.054;2024-02-26T10:38:45;96004.06;;;11.99;78.27
79331;BME280;68797;49.782;19.054;2024-02-26T10:41:19;95994.75;;;12.06;77.66
79331;BME280;68797;49.782;19.054;2024-02-26T10:43:51;96008.66;;;12.11;77.25
79331;BME280;68797;49.782;19.054;2024-02-26T10:46:26;96006.84;;;12.11;76.53
79331;BME280;68797;49.782;19.054;2024-02-26T10:48:57;96011.97;;;12.14;76.98
79331;BME280;68797;49.782;19.054;2024-02-26T10:51:44;96019.19;;;12.12;77.28
79331;BME280;68797;49.782;19.054;2024-02-26T10:54:22;96016.16;;;12.18;76.77
79331;BME280;68797;49.782;19.054;2024-02-26T10:57:06;96018.66;;;12.21;78.69
79331;BME280;68797;49.782;19.054;2024-02-26T10:59:38;96020.72;;;12.16;77.12
79331;BME280;68797;49.782;19.054;2024-02-26T11:02:27;96019.44;;;12.08;78.78
79331;BME280;68797;49.782;19.054;2024-02-26T11:04:58;96022.47;;;12.02;76.76
79331;BME280;68797;49.782;19.054;2024-02-26T11:07:29;96014.75;;;11.97;78.94
79331;BME280;68797;49.782;19.054;2024-02-26T11:10:08;96021.03;;;11.64;77.98
79331;BME280;68797;49.782;19.054;2024-02-26T11:12:42;96015.41;;;11.38;79.49
79331;BME280;68797;49.782;19.054;2024-02-26T11:15:15;96014.25;;;11.43;80.64
79331;BME280;68797;49.782;19.054;2024-02-26T11:17:48;96015.34;;;11.39;81.29
79331;BME280;68797;49.782;19.054;2024-02-26T11:20:25;96005.38;;;11.27;80.70
79331;BME280;68797;49.782;19.054;2024-02-26T11:23:07;96006.88;;;11.32;81.96
79331;BME280;68797;49.782;19.054;2024-02-26T11:25:40;95998.91;;;11.32;83.35
79331;BME280;68797;49.782;19.054;2024-02-26T11:28:26;96016.63;;;11.32;83.88
79331;BME280;68797;49.782;19.054;2024-02-26T11:31:04;96011.91;;;11.21;84.22
79331;BME280;68797;49.782;19.054;2024-02-26T11:33:35;96013.56;;;11.06;84.24
79331;BME280;68797;49.782;19.054;2024-02-26T11:36:17;96009.97;;;11.07;85.10
79331;BME280;68797;49.782;19.054;2024-02-26T11:38:49;95998.44;;;11.09;84.93
79331;BME280;68797;49.782;19.054;2024-02-26T11:41:25;96018.97;;;11.05;84.42
79331;BME280;68797;49.782;19.054;2024-02-26T11:44:05;96019.13;;;11.02;84.63
79331;BME280;68797;49.782;19.054;2024-02-26T11:46:52;96018.66;;;11.11;82.96
79331;BME280;68797;49.782;19.054;2024-02-26T11:49:32;96015.31;;;11.23;82.01
79331;BME280;68797;49.782;19.054;2024-02-26T11:52:10;96009.53;;;11.32;83.77
79331;BME280;68797;49.782;19.054;2024-02-26T11:54:59;95993.16;;;11.24;84.23
79331;BME280;68797;49.782;19.054;2024-02-26T11:57:41;96017.41;;;11.34;84.52
79331;BME280;68797;49.782;19.054;2024-02-26T12:00:18;96011.16;;;11.35;84.22
79331;BME280;68797;49.782;19.054;2024-02-26T12:03:01;96013.81;;;11.67;79.68
79331;BME280;68797;49.782;19.054;2024-02-26T12:05:36;96006.72;;;11.83;80.43
79331;BME280;68797;49.782;19.054;2024-02-26T12:08:16;96003.53;;;11.92;79.80
79331;BME280;68797;49.782;19.054;2024-02-26T12:10:55;95992.03;;;11.91;78.32
79331;BME280;68797;49.782;19.054;2024-02-26T12:13:37;95995.97;;;12.00;78.59
79331;BME280;68797;49.782;19.054;2024-02-26T12:16:40;95997.16;;;12.10;77.77
79331;BME280;68797;49.782;19.054;2024-02-26T12:19:17;95998.88;;;12.11;78.96
79331;BME280;68797;49.782;19.054;2024-02-26T12:21:52;96001.16;;;12.17;78.17
79331;BME280;68797;49.782;19.054;2024-02-26T12:24:30;95987.53;;;12.24;78.31
79331;BME280;68797;49.782;19.054;2024-02-26T12:26:59;95986.66;;;12.23;77.98
79331;BME280;68797;49.782;19.054;2024-02-26T12:29:33;95977.94;;;12.21;76.15
79331;BME280;68797;49.782;19.054;2024-02-26T12:32:12;95989.00;;;12.43;78.12
79331;BME280;68797;49.782;19.054;2024-02-26T12:34:49;96004.91;;;12.59;77.14
79331;BME280;68797;49.782;19.054;2024-02-26T12:37:26;96011.06;;;12.60;76.60
79331;BME280;68797;49.782;19.054;2024-02-26T12:40:04;95995.56;;;12.52;76.69
79331;BME280;68797;49.782;19.054;2024-02-26T12:42:43;96007.56;;;12.59;77.53
79331;BME280;68797;49.782;19.054;2024-02-26T12:45:13;96006.03;;;12.55;77.25
79331;BME280;68797;49.782;19.054;2024-02-26T12:47:48;96005.34;;;12.51;76.88
79331;BME280;68797;49.782;19.054;2024-02-26T12:50:35;96019.44;;;12.54;77.28
79331;BME280;68797;49.782;19.054;2024-02-26T12:53:05;96019.50;;;12.52;77.58
79331;BME280;68797;49.782;19.054;2024-02-26T12:55:40;96006.59;;;12.46;77.04
79331;BME280;68797;49.782;19.054;2024-02-26T12:58:13;96022.34;;;12.49;76.68
79331;BME280;68797;49.782;19.054;2024-02-26T13:00:54;96004.13;;;12.43;76.61
79331;BME280;68797;49.782;19.054;2024-02-26T13:03:30;96023.06;;;12.53;76.86
79331;BME280;68797;49.782;19.054;2024-02-26T13:06:12;96029.38;;;12.50;76.88
79331;BME280;68797;49.782;19.054;2024-02-26T13:08:58;96022.88;;;12.40;76.82
79331;BME280;68797;49.782;19.054;2024-02-26T13:11:34;96015.75;;;12.40;77.45
79331;BME280;68797;49.782;19.054;2024-02-26T13:14:21;96017.31;;;12.44;77.68
79331;BME280;68797;49.782;19.054;2024-02-26T13:16:57;96014.13;;;12.54;76.53
79331;BME280;68797;49.782;19.054;2024-02-26T13:19:28;96016.19;;;12.48;76.63
79331;BME280;68797;49.782;19.054;2024-02-26T13:22:09;96014.91;;;12.40;77.94
79331;BME280;68797;49.782;19.054;2024-02-26T13:24:41;96020.22;;;12.40;77.22
79331;BME280;68797;49.782;19.054;2024-02-26T13:27:27;96014.06;;;12.39;76.43
79331;BME280;68797;49.782;19.054;2024-02-26T13:30:14;96006.28;;;12.36;76.86
79331;BME280;68797;49.782;19.054;2024-02-26T13:32:50;96023.09;;;12.37;76.65
79331;BME280;68797;49.782;19.054;2024-02-26T13:35:20;96037.38;;;12.50;77.09
79331;BME280;68797;49.782;19.054;2024-02-26T13:37:57;96015.50;;;12.45;77.35
79331;BME280;68797;49.782;19.054;2024-02-26T13:40:29;96022.72;;;12.43;77.56
79331;BME280;68797;49.782;19.054;2024-02-26T13:43:09;96027.78;;;12.47;76.62
79331;BME280;68797;49.782;19.054;2024-02-26T13:45:43;96008.38;;;12.45;76.50
79331;BME280;68797;49.782;19.054;2024-02-26T13:48:13;96023.69;;;12.42;77.24
79331;BME280;68797;49.782;19.054;2024-02-26T13:50:45;96018.28;;;12.43;77.33
79331;BME280;68797;49.782;19.054;2024-02-26T13:53:28;96018.53;;;12.39;76.92
79331;BME280;68797;49.782;19.054;2024-02-26T13:56:00;96011.16;;;12.44;77.43
79331;BME280;68797;49.782;19.054;2024-02-26T13:58:38;96013.81;;;12.44;76.67
79331;BME280;68797;49.782;19.054;2024-02-26T14:01:16;96009.97;;;12.34;78.71
79331;BME280;68797;49.782;19.054;2024-02-26T14:03:54;96016.25;;;12.33;77.46